sensor_id;sensor_type;location;lat;lon;timestamp;temperature;humidity
71514;DHT22;59335;46.652;21.272;2022-10-04T00:00:48;21.81;50.54
71514;DHT22;59335;46.652;21.272;2022-10-04T00:04:05;21.83;50.50
71514;DHT22;59335;46.652;21.272;2022-10-04T00:10:20;21.79;50.51
71514;DHT22;59335;46.652;21.272;2022-10-04T00:13:24;21.79;50.54
71514;DHT22;59335;46.652;21.272;2022-10-04T00:16:32;21.82;50.50
71514;DHT22;59335;46.652;21.272;2022-10-04T00:19:40;21.79;50.46
71514;DHT22;59335;46.652;21.272;2022-10-04T00:23:50;21.81;50.44
71514;DHT22;59335;46.652;21.272;2022-10-04T00:30:14;21.77;50.41
71514;DHT22;59335;46.652;21.272;2022-10-04T00:33:37;21.79;50.40
71514;DHT22;59335;46.652;21.272;2022-10-04T00:36:53;21.79;50.37
71514;DHT22;59335;46.652;21.272;2022-10-04T00:39:58;21.79;50.30
71514;DHT22;59335;46.652;21.272;2022-10-04T00:43:07;21.75;50.37
71514;DHT22;59335;46.652;21.272;2022-10-04T00:46:20;21.77;50.31
71514;DHT22;59335;46.652;21.272;2022-10-04T00:49:30;21.78;50.31
71514;DHT22;59335;46.652;21.272;2022-10-04T00:52:41;21.78;50.26
71514;DHT22;59335;46.652;21.272;2022-10-04T00:55:53;21.77;50.26
71514;DHT22;59335;46.652;21.272;2022-10-04T01:02:14;21.75;50.23
71514;DHT22;59335;46.652;21.272;2022-10-04T01:05:32;21.74;50.19
71514;DHT22;59335;46.652;21.272;2022-10-04T01:08:40;21.75;50.19
71514;DHT22;59335;46.652;21.272;2022-10-04T01:11:58;21.77;50.14
71514;DHT22;59335;46.652;21.272;2022-10-04T01:15:04;21.77;50.15
71514;DHT22;59335;46.652;21.272;2022-10-04T01:24:22;21.72;50.14
71514;DHT22;59335;46.652;21.272;2022-10-04T01:27:42;21.74;50.11
71514;DHT22;59335;46.652;21.272;2022-10-04T01:30:45;21.72;50.11
71514;DHT22;59335;46.652;21.272;2022-10-04T01:33:48;21.75;50.09
71514;DHT22;59335;46.652;21.272;2022-10-04T01:36:53;21.74;49.98
71514;DHT22;59335;46.652;21.272;2022-10-04T01:39:56;21.74;49.98
71514;DHT22;59335;46.652;21.272;2022-10-04T01:43:05;21.75;49.93
71514;DHT22;59335;46.652;21.272;2022-10-04T01:46:31;21.74;49.95
71514;DHT22;59335;46.652;21.272;2022-10-04T01:49:37;21.72;49.91
71514;DHT22;59335;46.652;21.272;2022-10-04T01:52:44;21.68;50.02
71514;DHT22;59335;46.652;21.272;2022-10-04T01:55:54;21.71;49.99
71514;DHT22;59335;46.652;21.272;2022-10-04T01:59:02;21.71;49.94
71514;DHT22;59335;46.652;21.272;2022-10-04T02:02:18;21.71;49.89
71514;DHT22;59335;46.652;21.272;2022-10-04T02:05:42;21.66;49.93
71514;DHT22;59335;46.652;21.272;2022-10-04T02:08:48;21.71;49.89
71514;DHT22;59335;46.652;21.272;2022-10-04T02:11:53;21.71;49.89
71514;DHT22;59335;46.652;21.272;2022-10-04T02:14:59;21.72;49.88
71514;DHT22;59335;46.652;21.272;2022-10-04T02:18:08;21.68;49.82
71514;DHT22;59335;46.652;21.272;2022-10-04T02:21:13;21.68;49.73
71514;DHT22;59335;46.652;21.272;2022-10-04T02:24:18;21.74;49.69
71514;DHT22;59335;46.652;21.272;2022-10-04T02:27:28;21.74;49.70
71514;DHT22;59335;46.652;21.272;2022-10-04T02:30:37;21.65;49.80
71514;DHT22;59335;46.652;21.272;2022-10-04T02:33:42;21.65;49.79
71514;DHT22;59335;46.652;21.272;2022-10-04T02:36:46;21.66;49.80
71514;DHT22;59335;46.652;21.272;2022-10-04T02:40:07;21.65;49.72
71514;DHT22;59335;46.652;21.272;2022-10-04T02:43:20;21.66;49.71
71514;DHT22;59335;46.652;21.272;2022-10-04T02:46:28;21.62;49.71
71514;DHT22;59335;46.652;21.272;2022-10-04T02:49:45;21.65;49.66
71514;DHT22;59335;46.652;21.272;2022-10-04T02:52:53;21.69;49.64
71514;DHT22;59335;46.652;21.272;2022-10-04T02:55:56;21.66;49.59
71514;DHT22;59335;46.652;21.272;2022-10-04T02:59:01;21.68;49.58
71514;DHT22;59335;46.652;21.272;2022-10-04T03:02:24;21.66;49.54
71514;DHT22;59335;46.652;21.272;2022-10-04T03:05:31;21.65;49.55
71514;DHT22;59335;46.652;21.272;2022-10-04T03:11:45;21.62;49.54
71514;DHT22;59335;46.652;21.272;2022-10-04T03:14:51;21.62;49.55
71514;DHT22;59335;46.652;21.272;2022-10-04T03:17:54;21.65;49.53
71514;DHT22;59335;46.652;21.272;2022-10-04T03:21:01;21.66;49.44
71514;DHT22;59335;46.652;21.272;2022-10-04T03:24:05;21.63;49.44
71514;DHT22;59335;46.652;21.272;2022-10-04T03:27:08;21.63;49.39
71514;DHT22;59335;46.652;21.272;2022-10-04T03:30:16;21.63;49.45
71514;DHT22;59335;46.652;21.272;2022-10-04T03:33:23;21.59;49.43
71514;DHT22;59335;46.652;21.272;2022-10-04T03:36:26;21.63;49.39
71514;DHT22;59335;46.652;21.272;2022-10-04T03:42:35;21.63;49.21
71514;DHT22;59335;46.652;21.272;2022-10-04T03:45:39;21.62;49.30
71514;DHT22;59335;46.652;21.272;2022-10-04T03:48:45;21.59;49.25
71514;DHT22;59335;46.652;21.272;2022-10-04T03:51:51;21.61;49.27
71514;DHT22;59335;46.652;21.272;2022-10-04T03:54:56;21.61;49.19
71514;DHT22;59335;46.652;21.272;2022-10-04T03:58:01;21.59;49.18
71514;DHT22;59335;46.652;21.272;2022-10-04T04:01:19;21.61;49.39
71514;DHT22;59335;46.652;21.272;2022-10-04T04:04:31;21.61;49.53
71514;DHT22;59335;46.652;21.272;2022-10-04T04:07:46;21.62;49.60
71514;DHT22;59335;46.652;21.272;2022-10-04T04:10:55;21.61;49.64
71514;DHT22;59335;46.652;21.272;2022-10-04T04:14:08;21.62;49.69
71514;DHT22;59335;46.652;21.272;2022-10-04T04:17:32;21.62;49.62
71514;DHT22;59335;46.652;21.272;2022-10-04T04:20:37;21.61;49.74
71514;DHT22;59335;46.652;21.272;2022-10-04T04:23:46;21.58;49.72
71514;DHT22;59335;46.652;21.272;2022-10-04T04:26:58;21.61;49.74
71514;DHT22;59335;46.652;21.272;2022-10-04T04:30:03;21.57;49.75
71514;DHT22;59335;46.652;21.272;2022-10-04T04:33:13;21.62;49.78
71514;DHT22;59335;46.652;21.272;2022-10-04T04:36:22;21.58;49.70
71514;DHT22;59335;46.652;21.272;2022-10-04T04:39:25;21.57;49.81
71514;DHT22;59335;46.652;21.272;2022-10-04T04:42:42;21.58;49.81
71514;DHT22;59335;46.652;21.272;2022-10-04T04:45:47;21.61;49.79
71514;DHT22;59335;46.652;21.272;2022-10-04T04:49:10;21.58;49.83
71514;DHT22;59335;46.652;21.272;2022-10-04T04:52:17;21.59;49.85
71514;DHT22;59335;46.652;21.272;2022-10-04T04:55:24;21.59;49.77
71514;DHT22;59335;46.652;21.272;2022-10-04T05:01:45;21.62;49.72
71514;DHT22;59335;46.652;21.272;2022-10-04T05:04:48;21.61;49.59
71514;DHT22;59335;46.652;21.272;2022-10-04T05:11:16;21.62;49.60
71514;DHT22;59335;46.652;21.272;2022-10-04T05:14:20;21.61;49.56
71514;DHT22;59335;46.652;21.272;2022-10-04T05:17:25;21.58;49.56
71514;DHT22;59335;46.652;21.272;2022-10-04T05:20:29;21.61;49.34
71514;DHT22;59335;46.652;21.272;2022-10-04T05:23:33;21.66;49.14
71514;DHT22;59335;46.652;21.272;2022-10-04T05:26:36;21.63;49.33
71514;DHT22;59335;46.652;21.272;2022-10-04T05:29:48;21.68;49.24
71514;DHT22;59335;46.652;21.272;2022-10-04T05:33:03;21.52;46.13
71514;DHT22;59335;46.652;21.272;2022-10-04T05:39:49;20.92;42.38
71514;DHT22;59335;46.652;21.272;2022-10-04T05:42:56;20.75;42.55
71514;DHT22;59335;46.652;21.272;2022-10-04T05:46:30;20.52;42.58
71514;DHT22;59335;46.652;21.272;2022-10-04T05:49:43;20.00;44.01
71514;DHT22;59335;46.652;21.272;2022-10-04T05:52:49;20.29;44.35
71514;DHT22;59335;46.652;21.272;2022-10-04T05:56:11;20.53;45.23
71514;DHT22;59335;46.652;21.272;2022-10-04T06:06:47;21.04;44.43
71514;DHT22;59335;46.652;21.272;2022-10-04T06:23:28;21.34;43.92
71514;DHT22;59335;46.652;21.272;2022-10-04T06:26:45;21.44;43.96
71514;DHT22;59335;46.652;21.272;2022-10-04T06:29:56;21.47;44.05
71514;DHT22;59335;46.652;21.272;2022-10-04T06:53:40;21.92;45.22
71514;DHT22;59335;46.652;21.272;2022-10-04T07:00:17;22.06;45.53
71514;DHT22;59335;46.652;21.272;2022-10-04T07:03:27;22.10;45.57
71514;DHT22;59335;46.652;21.272;2022-10-04T07:06:46;22.17;45.66
71514;DHT22;59335;46.652;21.272;2022-10-04T07:09:54;22.20;45.88
71514;DHT22;59335;46.652;21.272;2022-10-04T07:16:21;22.24;46.18
71514;DHT22;59335;46.652;21.272;2022-10-04T07:19:35;22.27;46.18
71514;DHT22;59335;46.652;21.272;2022-10-04T07:22:44;22.27;46.28
71514;DHT22;59335;46.652;21.272;2022-10-04T07:25:51;22.33;46.37
71514;DHT22;59335;46.652;21.272;2022-10-04T07:29:00;22.36;46.33
71514;DHT22;59335;46.652;21.272;2022-10-04T07:32:27;22.36;46.32
71514;DHT22;59335;46.652;21.272;2022-10-04T07:35:42;22.39;46.40
71514;DHT22;59335;46.652;21.272;2022-10-04T07:38:49;22.40;46.47
71514;DHT22;59335;46.652;21.272;2022-10-04T07:41:59;22.41;46.37
71514;DHT22;59335;46.652;21.272;2022-10-04T07:45:27;22.47;46.61
71514;DHT22;59335;46.652;21.272;2022-10-04T07:48:31;22.46;46.81
71514;DHT22;59335;46.652;21.272;2022-10-04T07:56:10;22.55;46.95
71514;DHT22;59335;46.652;21.272;2022-10-04T07:58:59;22.58;47.31
71514;DHT22;59335;46.652;21.272;2022-10-04T08:05:53;22.64;47.34
71514;DHT22;59335;46.652;21.272;2022-10-04T08:12:49;22.68;47.47
71514;DHT22;59335;46.652;21.272;2022-10-04T08:15:58;22.64;47.49
71514;DHT22;59335;46.652;21.272;2022-10-04T08:29:15;22.57;47.91
71514;DHT22;59335;46.652;21.272;2022-10-04T08:33:11;22.58;48.05
71514;DHT22;59335;46.652;21.272;2022-10-04T08:36:29;22.55;48.15
71514;DHT22;59335;46.652;21.272;2022-10-04T08:46:25;22.57;48.27
71514;DHT22;59335;46.652;21.272;2022-10-04T09:06:41;22.65;48.50
71514;DHT22;59335;46.652;21.272;2022-10-04T09:16:48;22.64;48.46
71514;DHT22;59335;46.652;21.272;2022-10-04T09:31:05;22.61;48.74
71514;DHT22;59335;46.652;21.272;2022-10-04T09:38:00;22.57;48.87
71514;DHT22;59335;46.652;21.272;2022-10-04T09:55:13;22.55;49.15
71514;DHT22;59335;46.652;21.272;2022-10-04T10:05:54;22.63;49.20
71514;DHT22;59335;46.652;21.272;2022-10-04T10:09:09;22.61;49.23
71514;DHT22;59335;46.652;21.272;2022-10-04T10:12:31;22.58;48.96
71514;DHT22;59335;46.652;21.272;2022-10-04T10:40:15;22.43;49.19
71514;DHT22;59335;46.652;21.272;2022-10-04T10:54:30;22.41;49.18
71514;DHT22;59335;46.652;21.272;2022-10-04T11:21:25;22.50;49.15
71514;DHT22;59335;46.652;21.272;2022-10-04T11:24:45;22.51;49.16
71514;DHT22;59335;46.652;21.272;2022-10-04T11:28:06;22.50;49.15
71514;DHT22;59335;46.652;21.272;2022-10-04T11:41:13;22.50;47.97
71514;DHT22;59335;46.652;21.272;2022-10-04T11:44:45;22.44;47.81
71514;DHT22;59335;46.652;21.272;2022-10-04T12:01:38;22.46;48.31
71514;DHT22;59335;46.652;21.272;2022-10-04T12:25:54;22.41;48.82
71514;DHT22;59335;46.652;21.272;2022-10-04T12:42:27;22.39;48.80
71514;DHT22;59335;46.652;21.272;2022-10-04T12:45:49;22.39;48.79
71514;DHT22;59335;46.652;21.272;2022-10-04T12:52:39;22.34;48.95
71514;DHT22;59335;46.652;21.272;2022-10-04T12:56:04;22.37;48.79
71514;DHT22;59335;46.652;21.272;2022-10-04T13:05:49;22.36;48.72
71514;DHT22;59335;46.652;21.272;2022-10-04T13:12:23;22.34;48.64
71514;DHT22;59335;46.652;21.272;2022-10-04T13:15:43;22.34;48.70
71514;DHT22;59335;46.652;21.272;2022-10-04T13:22:31;22.34;48.77
71514;DHT22;59335;46.652;21.272;2022-10-04T13:29:29;22.30;48.82
71514;DHT22;59335;46.652;21.272;2022-10-04T13:50:39;22.30;49.15
71514;DHT22;59335;46.652;21.272;2022-10-04T13:57:30;22.32;49.22
71514;DHT22;59335;46.652;21.272;2022-10-04T14:07:49;22.27;49.38
71514;DHT22;59335;46.652;21.272;2022-10-04T14:25:21;22.24;49.46
71514;DHT22;59335;46.652;21.272;2022-10-04T14:31:54;22.26;49.45
71514;DHT22;59335;46.652;21.272;2022-10-04T14:38:52;22.24;49.53
71514;DHT22;59335;46.652;21.272;2022-10-04T14:42:05;22.20;49.40
71514;DHT22;59335;46.652;21.272;2022-10-04T14:45:22;22.23;49.61
71514;DHT22;59335;46.652;21.272;2022-10-04T14:48:39;22.24;50.01
71514;DHT22;59335;46.652;21.272;2022-10-04T14:55:36;22.21;49.92
71514;DHT22;59335;46.652;21.272;2022-10-04T14:59:06;22.21;50.08
71514;DHT22;59335;46.652;21.272;2022-10-04T15:02:34;22.19;50.74
71514;DHT22;59335;46.652;21.272;2022-10-04T15:22:27;22.13;51.63
71514;DHT22;59335;46.652;21.272;2022-10-04T15:25:51;22.13;51.69
71514;DHT22;59335;46.652;21.272;2022-10-04T15:29:18;22.13;51.80
71514;DHT22;59335;46.652;21.272;2022-10-04T15:36:10;22.12;51.75
71514;DHT22;59335;46.652;21.272;2022-10-04T15:42:36;22.13;51.56
71514;DHT22;59335;46.652;21.272;2022-10-04T15:59:34;22.12;51.46
71514;DHT22;59335;46.652;21.272;2022-10-04T16:02:57;22.07;51.46
71514;DHT22;59335;46.652;21.272;2022-10-04T16:06:16;22.09;51.39
71514;DHT22;59335;46.652;21.272;2022-10-04T16:22:32;22.07;51.39
71514;DHT22;59335;46.652;21.272;2022-10-04T16:25:36;22.03;51.38
71514;DHT22;59335;46.652;21.272;2022-10-04T16:32:16;22.03;51.30
71514;DHT22;59335;46.652;21.272;2022-10-04T16:35:44;22.05;51.28
71514;DHT22;59335;46.652;21.272;2022-10-04T16:38:52;22.03;51.24
71514;DHT22;59335;46.652;21.272;2022-10-04T16:42:15;22.03;51.20
71514;DHT22;59335;46.652;21.272;2022-10-04T16:49:01;22.03;51.06
71514;DHT22;59335;46.652;21.272;2022-10-04T16:52:23;22.03;50.93
71514;DHT22;59335;46.652;21.272;2022-10-04T16:58:51;22.00;50.91
71514;DHT22;59335;46.652;21.272;2022-10-04T17:01:59;22.02;50.81
71514;DHT22;59335;46.652;21.272;2022-10-04T17:08:22;21.95;50.86
71514;DHT22;59335;46.652;21.272;2022-10-04T17:11:44;21.99;50.75
71514;DHT22;59335;46.652;21.272;2022-10-04T17:21:39;21.98;50.63
71514;DHT22;59335;46.652;21.272;2022-10-04T17:32:02;21.96;50.54
71514;DHT22;59335;46.652;21.272;2022-10-04T17:42:05;21.98;50.43
71514;DHT22;59335;46.652;21.272;2022-10-04T17:48:29;21.93;50.43
71514;DHT22;59335;46.652;21.272;2022-10-04T17:51:53;21.90;50.39
71514;DHT22;59335;46.652;21.272;2022-10-04T17:55:23;21.88;50.39
71514;DHT22;59335;46.652;21.272;2022-10-04T17:58:45;21.90;50.30
71514;DHT22;59335;46.652;21.272;2022-10-04T18:01:58;21.88;50.30
71514;DHT22;59335;46.652;21.272;2022-10-04T18:05:13;21.89;50.28
71514;DHT22;59335;46.652;21.272;2022-10-04T18:11:45;21.88;50.24
71514;DHT22;59335;46.652;21.272;2022-10-04T18:15:03;21.89;50.18
71514;DHT22;59335;46.652;21.272;2022-10-04T18:18:19;21.89;50.13
71514;DHT22;59335;46.652;21.272;2022-10-04T18:21:26;21.88;50.09
71514;DHT22;59335;46.652;21.272;2022-10-04T18:24:29;21.88;50.13
71514;DHT22;59335;46.652;21.272;2022-10-04T18:27:47;21.89;50.09
71514;DHT22;59335;46.652;21.272;2022-10-04T18:31:02;21.86;50.12
71514;DHT22;59335;46.652;21.272;2022-10-04T18:37:36;21.86;50.03
71514;DHT22;59335;46.652;21.272;2022-10-04T18:40:53;21.85;50.03
71514;DHT22;59335;46.652;21.272;2022-10-04T18:47:14;21.83;50.05
71514;DHT22;59335;46.652;21.272;2022-10-04T18:50:41;21.82;49.99
71514;DHT22;59335;46.652;21.272;2022-10-04T18:53:56;21.86;50.01
71514;DHT22;59335;46.652;21.272;2022-10-04T19:00:33;21.83;49.99
71514;DHT22;59335;46.652;21.272;2022-10-04T19:04:07;21.85;49.96
71514;DHT22;59335;46.652;21.272;2022-10-04T19:07:15;21.83;49.97
71514;DHT22;59335;46.652;21.272;2022-10-04T19:10:26;21.85;49.90
71514;DHT22;59335;46.652;21.272;2022-10-04T19:13:39;21.81;50.01
71514;DHT22;59335;46.652;21.272;2022-10-04T19:16:56;21.79;49.96
71514;DHT22;59335;46.652;21.272;2022-10-04T19:27:02;21.82;49.77
71514;DHT22;59335;46.652;21.272;2022-10-04T19:30:43;21.81;49.82
71514;DHT22;59335;46.652;21.272;2022-10-04T19:33:54;21.81;49.77
71514;DHT22;59335;46.652;21.272;2022-10-04T19:37:04;21.78;49.75
71514;DHT22;59335;46.652;21.272;2022-10-04T19:40:19;21.78;49.77
71514;DHT22;59335;46.652;21.272;2022-10-04T19:50:25;21.77;49.74
71514;DHT22;59335;46.652;21.272;2022-10-04T19:53:43;21.74;49.72
71514;DHT22;59335;46.652;21.272;2022-10-04T19:56:48;21.74;49.80
71514;DHT22;59335;46.652;21.272;2022-10-04T19:59:52;21.77;49.71
71514;DHT22;59335;46.652;21.272;2022-10-04T20:02:55;21.75;49.70
71514;DHT22;59335;46.652;21.272;2022-10-04T20:05:58;21.77;49.62
71514;DHT22;59335;46.652;21.272;2022-10-04T20:09:48;21.77;49.58
71514;DHT22;59335;46.652;21.272;2022-10-04T20:16:11;21.77;49.55
71514;DHT22;59335;46.652;21.272;2022-10-04T20:28:56;21.72;49.51
71514;DHT22;59335;46.652;21.272;2022-10-04T20:31:59;21.77;49.44
71514;DHT22;59335;46.652;21.272;2022-10-04T20:35:08;21.74;49.43
71514;DHT22;59335;46.652;21.272;2022-10-04T20:38:15;21.71;49.47
71514;DHT22;59335;46.652;21.272;2022-10-04T20:44:59;21.72;49.40
71514;DHT22;59335;46.652;21.272;2022-10-04T20:48:25;21.71;49.42
71514;DHT22;59335;46.652;21.272;2022-10-04T20:51:29;21.72;49.36
71514;DHT22;59335;46.652;21.272;2022-10-04T20:54:35;21.74;49.42
71514;DHT22;59335;46.652;21.272;2022-10-04T20:57:38;21.72;49.37
71514;DHT22;59335;46.652;21.272;2022-10-04T21:00:52;21.71;49.37
71514;DHT22;59335;46.652;21.272;2022-10-04T21:04:21;21.69;49.34
71514;DHT22;59335;46.652;21.272;2022-10-04T21:07:34;21.68;49.34
71514;DHT22;59335;46.652;21.272;2022-10-04T21:10:36;21.71;49.30
71514;DHT22;59335;46.652;21.272;2022-10-04T21:13:54;21.65;49.35
71514;DHT22;59335;46.652;21.272;2022-10-04T21:20:49;21.71;49.12
71514;DHT22;59335;46.652;21.272;2022-10-04T21:23:51;21.66;49.21
71514;DHT22;59335;46.652;21.272;2022-10-04T21:26:55;21.65;49.18
71514;DHT22;59335;46.652;21.272;2022-10-04T21:30:04;21.68;49.07
71514;DHT22;59335;46.652;21.272;2022-10-04T21:33:07;21.63;49.13
71514;DHT22;59335;46.652;21.272;2022-10-04T21:36:09;21.63;49.16
71514;DHT22;59335;46.652;21.272;2022-10-04T21:39:12;21.62;49.17
71514;DHT22;59335;46.652;21.272;2022-10-04T21:42:14;21.62;49.18
71514;DHT22;59335;46.652;21.272;2022-10-04T21:45:17;21.66;49.14
71514;DHT22;59335;46.652;21.272;2022-10-04T21:48:20;21.68;49.09
71514;DHT22;59335;46.652;21.272;2022-10-04T21:51:24;21.68;49.03
71514;DHT22;59335;46.652;21.272;2022-10-04T21:54:27;21.63;49.11
71514;DHT22;59335;46.652;21.272;2022-10-04T21:57:29;21.68;49.07
71514;DHT22;59335;46.652;21.272;2022-10-04T22:00:37;21.61;49.05
71514;DHT22;59335;46.652;21.272;2022-10-04T22:03:39;21.66;49.02
71514;DHT22;59335;46.652;21.272;2022-10-04T22:06:42;21.65;48.98
71514;DHT22;59335;46.652;21.272;2022-10-04T22:09:45;21.68;48.93
71514;DHT22;59335;46.652;21.272;2022-10-04T22:12:48;21.66;48.93
71514;DHT22;59335;46.652;21.272;2022-10-04T22:15:51;21.63;48.90
71514;DHT22;59335;46.652;21.272;2022-10-04T22:18:54;21.63;48.91
71514;DHT22;59335;46.652;21.272;2022-10-04T22:21:56;21.62;48.99
71514;DHT22;59335;46.652;21.272;2022-10-04T22:24:59;21.61;48.93
71514;DHT22;59335;46.652;21.272;2022-10-04T22:28:14;21.59;48.94
71514;DHT22;59335;46.652;21.272;2022-10-04T22:31:29;21.58;49.01
71514;DHT22;59335;46.652;21.272;2022-10-04T22:34:32;21.59;48.90
71514;DHT22;59335;46.652;21.272;2022-10-04T22:37:34;21.59;48.89
71514;DHT22;59335;46.652;21.272;2022-10-04T22:40:37;21.61;48.84
71514;DHT22;59335;46.652;21.272;2022-10-04T22:43:40;21.63;48.72
71514;DHT22;59335;46.652;21.272;2022-10-04T22:46:47;21.62;48.73
71514;DHT22;59335;46.652;21.272;2022-10-04T22:49:51;21.61;48.73
71514;DHT22;59335;46.652;21.272;2022-10-04T22:52:54;21.61;48.64
71514;DHT22;59335;46.652;21.272;2022-10-04T22:55:57;21.59;48.69
71514;DHT22;59335;46.652;21.272;2022-10-04T22:58:59;21.55;48.68
71514;DHT22;59335;46.652;21.272;2022-10-04T23:02:07;21.55;48.69
71514;DHT22;59335;46.652;21.272;2022-10-04T23:05:17;21.57;48.63
71514;DHT22;59335;46.652;21.272;2022-10-04T23:08:20;21.57;48.68
71514;DHT22;59335;46.652;21.272;2022-10-04T23:11:24;21.57;48.63
71514;DHT22;59335;46.652;21.272;2022-10-04T23:14:26;21.57;48.60
71514;DHT22;59335;46.652;21.272;2022-10-04T23:17:33;21.57;48.61
71514;DHT22;59335;46.652;21.272;2022-10-04T23:20:36;21.57;48.63
71514;DHT22;59335;46.652;21.272;2022-10-04T23:23:39;21.57;48.48
71514;DHT22;59335;46.652;21.272;2022-10-04T23:26:44;21.52;48.59
71514;DHT22;59335;46.652;21.272;2022-10-04T23:29:57;21.55;48.52
71514;DHT22;59335;46.652;21.272;2022-10-04T23:33:13;21.52;48.50
71514;DHT22;59335;46.652;21.272;2022-10-04T23:36:17;21.52;48.51
71514;DHT22;59335;46.652;21.272;2022-10-04T23:39:26;21.58;48.44
71514;DHT22;59335;46.652;21.272;2022-10-04T23:42:31;21.51;48.42
71514;DHT22;59335;46.652;21.272;2022-10-04T23:45:34;21.58;48.32
71514;DHT22;59335;46.652;21.272;2022-10-04T23:48:43;21.51;48.38
71514;DHT22;59335;46.652;21.272;2022-10-04T23:51:46;21.52;48.45
71514;DHT22;59335;46.652;21.272;2022-10-04T23:54:52;21.54;48.38
71514;DHT22;59335;46.652;21.272;2022-10-04T23:57:58;21.55;48.35
